Heartwell, Vermont
Current Conditions -  °F | °C
As of 5:35 AM on Thursday 27 Nov 2014 (Local Time) from KRUT Reporting Station
Overcast Overcast  
Wind Chill: 19°   Ceiling: 1000
Heat Index: 27°   Visibility: 10mi
Dew Point: 23°   Wind: 7mph
Humidity: 86%   Direction: 330°NNW
Pressure: 29.89"   Gusts: NA
Location:  43.6369°N, 72.9375°W
Report Text: KRUT 271035Z 33006KT 10SM OVC010 M03/M05 A2989 RMK AO1
Loading
Personal Weather Stations






























Interactive Weather Map New forecast layout! Learn more

10-Day Weather Forecast

Advertisements
Track Severe Weather on mobile